sensor_id;sensor_type;location;lat;lon;timestamp;pressure;altitude;pressure_sealevel;temperature;humidity
78839;BME280;68405;47.190;27.558;2023-07-13T00:01:11;99514.89;;;21.79;62.40
78839;BME280;68405;47.190;27.558;2023-07-13T00:03:43;99517.48;;;21.75;61.47
78839;BME280;68405;47.190;27.558;2023-07-13T00:06:12;99518.04;;;21.73;60.98
78839;BME280;68405;47.190;27.558;2023-07-13T00:08:41;99513.23;;;21.71;60.93
78839;BME280;68405;47.190;27.558;2023-07-13T00:11:10;99508.45;;;21.69;61.97
78839;BME280;68405;47.190;27.558;2023-07-13T00:13:39;99506.73;;;21.67;60.70
78839;BME280;68405;47.190;27.558;2023-07-13T00:16:09;99505.73;;;21.66;65.48
78839;BME280;68405;47.190;27.558;2023-07-13T00:18:39;99503.52;;;21.63;65.02
78839;BME280;68405;47.190;27.558;2023-07-13T00:21:08;99500.03;;;21.58;62.76
78839;BME280;68405;47.190;27.558;2023-07-13T00:23:39;99493.85;;;21.54;62.18
78839;BME280;68405;47.190;27.558;2023-07-13T00:26:09;99491.99;;;21.51;61.79
78839;BME280;68405;47.190;27.558;2023-07-13T00:28:39;99498.30;;;21.48;62.89
78839;BME280;68405;47.190;27.558;2023-07-13T00:31:10;99499.81;;;21.44;63.18
78839;BME280;68405;47.190;27.558;2023-07-13T00:33:40;99499.02;;;21.41;62.99
78839;BME280;68405;47.190;27.558;2023-07-13T00:36:10;99495.77;;;21.37;62.55
78839;BME280;68405;47.190;27.558;2023-07-13T00:38:39;99497.55;;;21.35;63.04
78839;BME280;68405;47.190;27.558;2023-07-13T00:41:09;99495.44;;;21.34;63.30
78839;BME280;68405;47.190;27.558;2023-07-13T00:43:38;99497.08;;;21.33;66.50
78839;BME280;68405;47.190;27.558;2023-07-13T00:46:25;99490.41;;;21.30;63.87
78839;BME280;68405;47.190;27.558;2023-07-13T00:48:56;99491.75;;;21.29;66.30
78839;BME280;68405;47.190;27.558;2023-07-13T00:51:31;99487.86;;;21.25;64.25
78839;BME280;68405;47.190;27.558;2023-07-13T00:54:05;99487.73;;;21.22;66.56
78839;BME280;68405;47.190;27.558;2023-07-13T00:56:35;99486.86;;;21.20;66.82
78839;BME280;68405;47.190;27.558;2023-07-13T00:59:07;99488.39;;;21.16;64.76
78839;BME280;68405;47.190;27.558;2023-07-13T01:01:37;99491.39;;;21.14;67.24
78839;BME280;68405;47.190;27.558;2023-07-13T01:04:07;99487.05;;;21.11;66.80
78839;BME280;68405;47.190;27.558;2023-07-13T01:06:37;99489.05;;;21.08;68.59
78839;BME280;68405;47.190;27.558;2023-07-13T01:09:07;99490.01;;;21.06;67.59
78839;BME280;68405;47.190;27.558;2023-07-13T01:11:38;99489.51;;;21.03;67.05
78839;BME280;68405;47.190;27.558;2023-07-13T01:14:07;99486.14;;;20.99;65.64
78839;BME280;68405;47.190;27.558;2023-07-13T01:16:37;99483.84;;;20.97;67.52
78839;BME280;68405;47.190;27.558;2023-07-13T01:19:17;99482.70;;;20.93;67.01
78839;BME280;68405;47.190;27.558;2023-07-13T01:21:51;99486.55;;;20.92;69.54
78839;BME280;68405;47.190;27.558;2023-07-13T01:24:20;99482.56;;;20.87;67.14
78839;BME280;68405;47.190;27.558;2023-07-13T01:26:49;99483.54;;;20.84;67.87
78839;BME280;68405;47.190;27.558;2023-07-13T01:29:18;99483.75;;;20.81;67.15
78839;BME280;68405;47.190;27.558;2023-07-13T01:31:47;99480.66;;;20.78;66.81
78839;BME280;68405;47.190;27.558;2023-07-13T01:34:16;99483.55;;;20.77;68.89
78839;BME280;68405;47.190;27.558;2023-07-13T01:36:45;99482.31;;;20.75;69.88
78839;BME280;68405;47.190;27.558;2023-07-13T01:39:14;99486.49;;;20.74;71.55
78839;BME280;68405;47.190;27.558;2023-07-13T01:41:43;99486.58;;;20.73;70.94
78839;BME280;68405;47.190;27.558;2023-07-13T01:44:30;99482.80;;;20.71;72.90
78839;BME280;68405;47.190;27.558;2023-07-13T01:47:00;99486.02;;;20.68;73.18
78839;BME280;68405;47.190;27.558;2023-07-13T01:49:29;99490.43;;;20.66;73.51
78839;BME280;68405;47.190;27.558;2023-07-13T01:51:58;99493.73;;;20.63;72.14
78839;BME280;68405;47.190;27.558;2023-07-13T01:54:27;99489.52;;;20.58;72.72
78839;BME280;68405;47.190;27.558;2023-07-13T01:56:56;99487.69;;;20.54;71.63
78839;BME280;68405;47.190;27.558;2023-07-13T01:59:25;99494.00;;;20.51;71.52
78839;BME280;68405;47.190;27.558;2023-07-13T02:01:53;99495.39;;;20.49;74.47
78839;BME280;68405;47.190;27.558;2023-07-13T02:04:22;99491.76;;;20.46;72.56
78839;BME280;68405;47.190;27.558;2023-07-13T02:06:51;99491.76;;;20.43;73.65
78839;BME280;68405;47.190;27.558;2023-07-13T02:09:20;99493.09;;;20.40;70.94
78839;BME280;68405;47.190;27.558;2023-07-13T02:11:49;99491.84;;;20.36;73.14
78839;BME280;68405;47.190;27.558;2023-07-13T02:14:18;99496.23;;;20.32;73.41
78839;BME280;68405;47.190;27.558;2023-07-13T02:16:47;99497.36;;;20.29;73.16
78839;BME280;68405;47.190;27.558;2023-07-13T02:19:16;99498.13;;;20.25;73.74
78839;BME280;68405;47.190;27.558;2023-07-13T02:21:45;99504.13;;;20.26;76.00
78839;BME280;68405;47.190;27.558;2023-07-13T02:24:14;99502.95;;;20.23;73.44
78839;BME280;68405;47.190;27.558;2023-07-13T02:26:45;99503.18;;;20.20;73.02
78839;BME280;68405;47.190;27.558;2023-07-13T02:29:15;99498.06;;;20.18;72.57
78839;BME280;68405;47.190;27.558;2023-07-13T02:31:44;99492.90;;;20.16;73.75
78839;BME280;68405;47.190;27.558;2023-07-13T02:34:13;99494.61;;;20.15;72.51
78839;BME280;68405;47.190;27.558;2023-07-13T02:36:42;99497.02;;;20.13;71.56
78839;BME280;68405;47.190;27.558;2023-07-13T02:39:12;99497.88;;;20.13;73.15
78839;BME280;68405;47.190;27.558;2023-07-13T02:41:42;99493.82;;;20.13;72.71
78839;BME280;68405;47.190;27.558;2023-07-13T02:44:13;99495.40;;;20.16;75.05
78839;BME280;68405;47.190;27.558;2023-07-13T02:46:42;99491.76;;;20.18;75.59
78839;BME280;68405;47.190;27.558;2023-07-13T02:49:11;99489.52;;;20.19;74.07
78839;BME280;68405;47.190;27.558;2023-07-13T02:51:40;99487.10;;;20.21;72.46
78839;BME280;68405;47.190;27.558;2023-07-13T02:54:11;99488.19;;;20.24;73.59
78839;BME280;68405;47.190;27.558;2023-07-13T02:56:41;99487.35;;;20.28;73.00
78839;BME280;68405;47.190;27.558;2023-07-13T02:59:11;99487.75;;;20.32;72.88
78839;BME280;68405;47.190;27.558;2023-07-13T03:01:40;99487.83;;;20.38;73.75
78839;BME280;68405;47.190;27.558;2023-07-13T03:04:09;99489.59;;;20.42;72.94
78839;BME280;68405;47.190;27.558;2023-07-13T03:06:38;99497.25;;;20.48;71.11
78839;BME280;68405;47.190;27.558;2023-07-13T03:09:07;99503.45;;;20.54;72.98
78839;BME280;68405;47.190;27.558;2023-07-13T03:11:36;99504.25;;;20.59;71.64
78839;BME280;68405;47.190;27.558;2023-07-13T03:14:05;99505.00;;;20.63;71.68
78839;BME280;68405;47.190;27.558;2023-07-13T03:16:34;99509.88;;;20.66;71.55
78839;BME280;68405;47.190;27.558;2023-07-13T03:19:03;99516.41;;;20.70;71.08
78839;BME280;68405;47.190;27.558;2023-07-13T03:21:32;99513.81;;;20.76;69.80
78839;BME280;68405;47.190;27.558;2023-07-13T03:24:01;99509.45;;;20.82;69.87
78839;BME280;68405;47.190;27.558;2023-07-13T03:26:30;99512.98;;;20.88;70.07
78839;BME280;68405;47.190;27.558;2023-07-13T03:29:00;99515.98;;;20.95;70.10
78839;BME280;68405;47.190;27.558;2023-07-13T03:31:33;99512.13;;;21.01;69.79
78839;BME280;68405;47.190;27.558;2023-07-13T03:34:02;99511.22;;;21.05;70.66
78839;BME280;68405;47.190;27.558;2023-07-13T03:36:32;99516.59;;;21.11;70.18
78839;BME280;68405;47.190;27.558;2023-07-13T03:39:02;99518.80;;;21.16;69.78
78839;BME280;68405;47.190;27.558;2023-07-13T03:41:32;99524.53;;;21.21;70.79
78839;BME280;68405;47.190;27.558;2023-07-13T03:44:01;99529.19;;;21.29;69.86
78839;BME280;68405;47.190;27.558;2023-07-13T03:46:29;99526.80;;;21.38;69.67
78839;BME280;68405;47.190;27.558;2023-07-13T03:48:59;99526.71;;;21.48;69.76
78839;BME280;68405;47.190;27.558;2023-07-13T03:51:28;99526.23;;;21.57;69.49
78839;BME280;68405;47.190;27.558;2023-07-13T03:53:57;99532.11;;;21.72;68.93
78839;BME280;68405;47.190;27.558;2023-07-13T03:56:26;99535.19;;;21.91;68.99
78839;BME280;68405;47.190;27.558;2023-07-13T03:58:56;99530.45;;;22.17;68.22
78839;BME280;68405;47.190;27.558;2023-07-13T04:01:25;99531.86;;;22.43;67.66
78839;BME280;68405;47.190;27.558;2023-07-13T04:03:54;99536.52;;;22.96;66.27
78839;BME280;68405;47.190;27.558;2023-07-13T04:06:25;99535.80;;;23.70;64.10
78839;BME280;68405;47.190;27.558;2023-07-13T04:08:56;99536.29;;;24.81;62.76
78839;BME280;68405;47.190;27.558;2023-07-13T04:11:30;99538.81;;;26.02;58.93
78839;BME280;68405;47.190;27.558;2023-07-13T04:13:59;99537.77;;;27.07;54.69
78839;BME280;68405;47.190;27.558;2023-07-13T04:16:29;99546.41;;;28.03;53.18
78839;BME280;68405;47.190;27.558;2023-07-13T04:18:58;99548.86;;;28.90;48.40
78839;BME280;68405;47.190;27.558;2023-07-13T04:21:28;99550.70;;;29.82;48.49
78839;BME280;68405;47.190;27.558;2023-07-13T04:23:58;99552.80;;;30.71;45.61
78839;BME280;68405;47.190;27.558;2023-07-13T04:26:27;99552.88;;;31.66;44.11
78839;BME280;68405;47.190;27.558;2023-07-13T04:28:58;99551.65;;;32.43;42.12
78839;BME280;68405;47.190;27.558;2023-07-13T04:31:28;99555.50;;;33.09;40.09
78839;BME280;68405;47.190;27.558;2023-07-13T04:33:57;99562.45;;;33.79;39.25
78839;BME280;68405;47.190;27.558;2023-07-13T04:36:27;99568.67;;;34.71;40.89
78839;BME280;68405;47.190;27.558;2023-07-13T04:38:56;99574.31;;;35.36;34.97
78839;BME280;68405;47.190;27.558;2023-07-13T04:41:25;99579.94;;;35.69;32.71
78839;BME280;68405;47.190;27.558;2023-07-13T04:43:55;99578.95;;;36.02;33.31
78839;BME280;68405;47.190;27.558;2023-07-13T04:46:24;99584.54;;;36.46;33.14
78839;BME280;68405;47.190;27.558;2023-07-13T04:48:53;99590.23;;;37.21;31.00
78839;BME280;68405;47.190;27.558;2023-07-13T04:51:22;99593.99;;;37.88;30.32
78839;BME280;68405;47.190;27.558;2023-07-13T04:53:51;99588.96;;;38.46;28.17
78839;BME280;68405;47.190;27.558;2023-07-13T04:56:21;99592.49;;;38.97;28.36
78839;BME280;68405;47.190;27.558;2023-07-13T04:58:50;99594.11;;;39.71;29.22
78839;BME280;68405;47.190;27.558;2023-07-13T05:01:19;99597.05;;;40.40;26.16
78839;BME280;68405;47.190;27.558;2023-07-13T05:03:48;99597.73;;;40.88;25.47
78839;BME280;68405;47.190;27.558;2023-07-13T05:06:18;99603.48;;;40.95;23.76
78839;BME280;68405;47.190;27.558;2023-07-13T05:08:47;99601.52;;;41.37;23.09
78839;BME280;68405;47.190;27.558;2023-07-13T05:11:17;99600.95;;;42.07;22.29
78839;BME280;68405;47.190;27.558;2023-07-13T05:13:46;99609.20;;;42.21;20.72
78839;BME280;68405;47.190;27.558;2023-07-13T05:16:15;99612.61;;;41.94;21.48
78839;BME280;68405;47.190;27.558;2023-07-13T05:18:44;99618.98;;;42.78;20.54
78839;BME280;68405;47.190;27.558;2023-07-13T05:21:13;99619.77;;;43.27;20.46
78839;BME280;68405;47.190;27.558;2023-07-13T05:23:43;99619.73;;;44.17;19.57
78839;BME280;68405;47.190;27.558;2023-07-13T05:26:12;99615.76;;;44.65;18.45
78839;BME280;68405;47.190;27.558;2023-07-13T05:28:41;99619.54;;;44.63;18.32
78839;BME280;68405;47.190;27.558;2023-07-13T05:31:11;99621.67;;;44.74;18.22
78839;BME280;68405;47.190;27.558;2023-07-13T05:33:40;99618.55;;;44.91;18.00
78839;BME280;68405;47.190;27.558;2023-07-13T05:36:09;99623.36;;;45.02;17.86
78839;BME280;68405;47.190;27.558;2023-07-13T05:38:38;99622.92;;;45.36;17.39
78839;BME280;68405;47.190;27.558;2023-07-13T05:41:08;99620.70;;;45.25;17.36
78839;BME280;68405;47.190;27.558;2023-07-13T05:43:37;99618.92;;;45.45;17.20
78839;BME280;68405;47.190;27.558;2023-07-13T05:46:06;99615.09;;;45.97;16.90
78839;BME280;68405;47.190;27.558;2023-07-13T05:48:35;99616.55;;;46.52;16.40
78839;BME280;68405;47.190;27.558;2023-07-13T05:51:04;99621.33;;;47.23;15.82
78839;BME280;68405;47.190;27.558;2023-07-13T05:53:34;99618.68;;;47.48;15.03
78839;BME280;68405;47.190;27.558;2023-07-13T05:56:04;99621.34;;;47.90;14.87
78839;BME280;68405;47.190;27.558;2023-07-13T05:58:33;99624.63;;;48.10;14.28
78839;BME280;68405;47.190;27.558;2023-07-13T06:01:08;99623.30;;;48.03;14.37
78839;BME280;68405;47.190;27.558;2023-07-13T06:03:38;99619.54;;;47.98;14.49
78839;BME280;68405;47.190;27.558;2023-07-13T06:06:09;99615.96;;;48.39;13.74
78839;BME280;68405;47.190;27.558;2023-07-13T06:08:39;99619.54;;;48.83;13.47
78839;BME280;68405;47.190;27.558;2023-07-13T06:11:12;99616.08;;;49.40;13.10
78839;BME280;68405;47.190;27.558;2023-07-13T06:13:42;99614.70;;;49.16;12.97
78839;BME280;68405;47.190;27.558;2023-07-13T06:16:13;99618.80;;;48.94;13.36
78839;BME280;68405;47.190;27.558;2023-07-13T06:18:43;99623.95;;;49.35;13.06
78839;BME280;68405;47.190;27.558;2023-07-13T06:21:14;99629.65;;;49.66;12.70
78839;BME280;68405;47.190;27.558;2023-07-13T06:23:45;99629.59;;;50.17;12.43
78839;BME280;68405;47.190;27.558;2023-07-13T06:26:15;99633.99;;;51.15;12.11
78839;BME280;68405;47.190;27.558;2023-07-13T06:28:45;99633.02;;;51.35;11.83
78839;BME280;68405;47.190;27.558;2023-07-13T06:31:14;99632.13;;;50.90;11.61
78839;BME280;68405;47.190;27.558;2023-07-13T06:33:44;99637.73;;;51.30;11.46
78839;BME280;68405;47.190;27.558;2023-07-13T06:36:13;99640.05;;;52.11;11.04
78839;BME280;68405;47.190;27.558;2023-07-13T06:38:42;99641.13;;;51.36;11.18
78839;BME280;68405;47.190;27.558;2023-07-13T06:41:11;99644.77;;;51.22;11.54
78839;BME280;68405;47.190;27.558;2023-07-13T06:43:40;99650.67;;;52.35;10.69
78839;BME280;68405;47.190;27.558;2023-07-13T06:46:09;99650.64;;;53.02;10.09
78839;BME280;68405;47.190;27.558;2023-07-13T06:48:38;99650.77;;;53.36;9.90
78839;BME280;68405;47.190;27.558;2023-07-13T06:51:08;99649.77;;;53.79;9.87
78839;BME280;68405;47.190;27.558;2023-07-13T06:53:37;99646.11;;;54.28;9.29
78839;BME280;68405;47.190;27.558;2023-07-13T06:56:06;99648.03;;;54.71;8.88
78839;BME280;68405;47.190;27.558;2023-07-13T06:58:35;99647.02;;;54.37;9.18
78839;BME280;68405;47.190;27.558;2023-07-13T07:01:05;99647.46;;;53.93;9.58
78839;BME280;68405;47.190;27.558;2023-07-13T07:03:34;99641.16;;;54.60;9.11
78839;BME280;68405;47.190;27.558;2023-07-13T07:06:12;99638.85;;;54.85;8.86
78839;BME280;68405;47.190;27.558;2023-07-13T07:08:42;99639.38;;;54.96;8.54
78839;BME280;68405;47.190;27.558;2023-07-13T07:11:14;99636.36;;;55.44;8.19
78839;BME280;68405;47.190;27.558;2023-07-13T07:13:43;99632.73;;;55.89;7.84
78839;BME280;68405;47.190;27.558;2023-07-13T07:16:12;99629.33;;;56.01;7.90
78839;BME280;68405;47.190;27.558;2023-07-13T07:18:42;99630.98;;;56.78;7.63
78839;BME280;68405;47.190;27.558;2023-07-13T07:21:11;99624.70;;;57.33;7.05
78839;BME280;68405;47.190;27.558;2023-07-13T07:23:41;99622.62;;;55.32;7.96
78839;BME280;68405;47.190;27.558;2023-07-13T07:26:11;99620.27;;;56.83;7.54
78839;BME280;68405;47.190;27.558;2023-07-13T07:28:40;99620.23;;;56.22;7.25
78839;BME280;68405;47.190;27.558;2023-07-13T07:31:09;99621.05;;;55.89;7.84
78839;BME280;68405;47.190;27.558;2023-07-13T07:33:38;99618.92;;;56.24;7.67
78839;BME280;68405;47.190;27.558;2023-07-13T07:36:11;99619.60;;;55.38;8.10
78839;BME280;68405;47.190;27.558;2023-07-13T07:38:40;99619.00;;;54.80;8.48
78839;BME280;68405;47.190;27.558;2023-07-13T07:41:09;99618.02;;;53.62;9.04
78839;BME280;68405;47.190;27.558;2023-07-13T07:43:38;99613.03;;;54.13;8.76
78839;BME280;68405;47.190;27.558;2023-07-13T07:46:10;99615.85;;;55.20;8.26
78839;BME280;68405;47.190;27.558;2023-07-13T07:48:38;99619.98;;;55.68;8.23
78839;BME280;68405;47.190;27.558;2023-07-13T07:51:07;99632.47;;;55.70;7.99
78839;BME280;68405;47.190;27.558;2023-07-13T07:53:36;99633.94;;;56.00;7.73
78839;BME280;68405;47.190;27.558;2023-07-13T07:56:06;99635.78;;;56.12;7.65
78839;BME280;68405;47.190;27.558;2023-07-13T07:58:35;99631.93;;;56.27;7.89
78839;BME280;68405;47.190;27.558;2023-07-13T08:01:05;99634.33;;;57.30;7.09
78839;BME280;68405;47.190;27.558;2023-07-13T08:03:34;99642.10;;;57.94;6.60
78839;BME280;68405;47.190;27.558;2023-07-13T08:06:04;99643.93;;;58.00;6.69
78839;BME280;68405;47.190;27.558;2023-07-13T08:08:34;99651.52;;;57.09;6.98
78839;BME280;68405;47.190;27.558;2023-07-13T08:11:06;99656.70;;;57.07;7.09
78839;BME280;68405;47.190;27.558;2023-07-13T08:13:36;99657.61;;;57.17;6.91
78839;BME280;68405;47.190;27.558;2023-07-13T08:16:06;99653.75;;;57.63;6.52
78839;BME280;68405;47.190;27.558;2023-07-13T08:18:35;99648.27;;;57.52;6.64
78839;BME280;68405;47.190;27.558;2023-07-13T08:21:05;99645.47;;;56.84;7.34
78839;BME280;68405;47.190;27.558;2023-07-13T08:23:35;99647.79;;;56.82;7.30
78839;BME280;68405;47.190;27.558;2023-07-13T08:26:04;99649.27;;;57.03;6.96
78839;BME280;68405;47.190;27.558;2023-07-13T08:28:34;99646.29;;;56.76;7.15
78839;BME280;68405;47.190;27.558;2023-07-13T08:31:03;99647.95;;;57.24;7.09
78839;BME280;68405;47.190;27.558;2023-07-13T08:33:33;99646.88;;;57.17;7.08
78839;BME280;68405;47.190;27.558;2023-07-13T08:36:04;99644.41;;;57.05;7.15
78839;BME280;68405;47.190;27.558;2023-07-13T08:38:33;99639.80;;;57.31;7.06
78839;BME280;68405;47.190;27.558;2023-07-13T08:41:11;99645.58;;;56.80;7.49
78839;BME280;68405;47.190;27.558;2023-07-13T08:43:42;99645.46;;;57.11;7.24
78839;BME280;68405;47.190;27.558;2023-07-13T08:46:17;99641.95;;;54.37;8.67
78839;BME280;68405;47.190;27.558;2023-07-13T08:48:50;99637.02;;;52.56;9.89
78839;BME280;68405;47.190;27.558;2023-07-13T08:51:30;99628.05;;;53.96;8.94
78839;BME280;68405;47.190;27.558;2023-07-13T08:54:03;99619.45;;;54.32;8.48
78839;BME280;68405;47.190;27.558;2023-07-13T08:56:33;99614.05;;;53.64;8.90
78839;BME280;68405;47.190;27.558;2023-07-13T08:59:05;99606.51;;;54.20;9.02
78839;BME280;68405;47.190;27.558;2023-07-13T09:01:50;99603.27;;;54.75;8.64
78839;BME280;68405;47.190;27.558;2023-07-13T09:04:25;99605.29;;;54.50;8.71
78839;BME280;68405;47.190;27.558;2023-07-13T09:07:03;99607.12;;;54.96;8.12
78839;BME280;68405;47.190;27.558;2023-07-13T09:09:45;99601.79;;;55.43;7.91
78839;BME280;68405;47.190;27.558;2023-07-13T09:12:24;99599.38;;;55.80;7.64
78839;BME280;68405;47.190;27.558;2023-07-13T09:14:57;99594.92;;;55.45;8.08
78839;BME280;68405;47.190;27.558;2023-07-13T09:17:29;99595.39;;;55.16;7.76
78839;BME280;68405;47.190;27.558;2023-07-13T09:20:04;99597.75;;;54.96;8.30
78839;BME280;68405;47.190;27.558;2023-07-13T09:22:39;99598.02;;;54.60;8.80
78839;BME280;68405;47.190;27.558;2023-07-13T09:25:20;99600.55;;;54.45;8.70
78839;BME280;68405;47.190;27.558;2023-07-13T09:27:54;99602.02;;;55.51;8.14
78839;BME280;68405;47.190;27.558;2023-07-13T09:30:36;99605.73;;;54.66;8.63
78839;BME280;68405;47.190;27.558;2023-07-13T09:33:07;99602.31;;;54.63;8.61
78839;BME280;68405;47.190;27.558;2023-07-13T09:35:37;99591.73;;;54.83;8.52
78839;BME280;68405;47.190;27.558;2023-07-13T09:38:13;99586.67;;;54.45;9.04
78839;BME280;68405;47.190;27.558;2023-07-13T09:40:49;99583.31;;;54.80;8.87
78839;BME280;68405;47.190;27.558;2023-07-13T09:43:23;99578.78;;;54.97;8.63
78839;BME280;68405;47.190;27.558;2023-07-13T09:45:52;99572.33;;;54.54;8.88
78839;BME280;68405;47.190;27.558;2023-07-13T09:48:21;99568.33;;;54.86;8.79
78839;BME280;68405;47.190;27.558;2023-07-13T09:50:55;99568.81;;;54.88;8.66
78839;BME280;68405;47.190;27.558;2023-07-13T09:53:24;99568.96;;;54.81;8.59
78839;BME280;68405;47.190;27.558;2023-07-13T09:55:59;99565.91;;;54.43;8.65
78839;BME280;68405;47.190;27.558;2023-07-13T09:58:31;99567.23;;;54.27;8.90
78839;BME280;68405;47.190;27.558;2023-07-13T10:01:01;99563.34;;;53.75;9.09
78839;BME280;68405;47.190;27.558;2023-07-13T10:03:34;99561.09;;;53.85;8.85
78839;BME280;68405;47.190;27.558;2023-07-13T10:06:14;99561.44;;;54.03;8.71
78839;BME280;68405;47.190;27.558;2023-07-13T10:08:43;99564.08;;;53.52;9.43
78839;BME280;68405;47.190;27.558;2023-07-13T10:11:19;99569.45;;;52.84;9.91
78839;BME280;68405;47.190;27.558;2023-07-13T10:13:54;99568.50;;;53.06;9.69
78839;BME280;68405;47.190;27.558;2023-07-13T10:16:25;99570.26;;;52.87;9.71
78839;BME280;68405;47.190;27.558;2023-07-13T10:19:03;99573.85;;;51.97;10.38
78839;BME280;68405;47.190;27.558;2023-07-13T10:21:36;99582.59;;;51.59;10.80
78839;BME280;68405;47.190;27.558;2023-07-13T10:24:10;99585.87;;;51.50;10.75
78839;BME280;68405;47.190;27.558;2023-07-13T10:26:45;99588.83;;;51.42;10.84
78839;BME280;68405;47.190;27.558;2023-07-13T10:29:16;99593.45;;;51.67;10.82
78839;BME280;68405;47.190;27.558;2023-07-13T10:31:46;99593.98;;;51.19;11.22
78839;BME280;68405;47.190;27.558;2023-07-13T10:34:15;99588.94;;;51.48;10.96
78839;BME280;68405;47.190;27.558;2023-07-13T10:36:46;99583.27;;;51.29;10.88
78839;BME280;68405;47.190;27.558;2023-07-13T10:39:18;99587.71;;;50.97;10.83
78839;BME280;68405;47.190;27.558;2023-07-13T10:41:52;99588.33;;;50.92;11.11
78839;BME280;68405;47.190;27.558;2023-07-13T10:44:25;99583.41;;;50.56;11.33
78839;BME280;68405;47.190;27.558;2023-07-13T10:46:59;99580.19;;;49.93;12.10
78839;BME280;68405;47.190;27.558;2023-07-13T10:49:31;99571.36;;;49.73;12.15
78839;BME280;68405;47.190;27.558;2023-07-13T10:52:00;99564.05;;;48.69;13.02
78839;BME280;68405;47.190;27.558;2023-07-13T10:54:32;99561.34;;;48.32;12.94
78839;BME280;68405;47.190;27.558;2023-07-13T10:57:19;99558.48;;;48.32;13.26
78839;BME280;68405;47.190;27.558;2023-07-13T11:00:10;99563.75;;;47.60;14.24
78839;BME280;68405;47.190;27.558;2023-07-13T11:02:39;99568.11;;;47.19;14.83
78839;BME280;68405;47.190;27.558;2023-07-13T11:05:25;99565.52;;;45.95;15.58
78839;BME280;68405;47.190;27.558;2023-07-13T11:08:11;99556.11;;;46.62;14.73
78839;BME280;68405;47.190;27.558;2023-07-13T11:10:51;99542.60;;;46.42;14.58
78839;BME280;68405;47.190;27.558;2023-07-13T11:16:41;99543.55;;;46.19;14.81
78839;BME280;68405;47.190;27.558;2023-07-13T11:19:40;99543.48;;;45.90;15.06
78839;BME280;68405;47.190;27.558;2023-07-13T11:22:21;99532.24;;;45.91;15.33
78839;BME280;68405;47.190;27.558;2023-07-13T11:24:59;99524.77;;;45.59;15.54
78839;BME280;68405;47.190;27.558;2023-07-13T11:27:35;99525.93;;;45.18;15.65
78839;BME280;68405;47.190;27.558;2023-07-13T11:30:31;99523.52;;;44.67;16.57
78839;BME280;68405;47.190;27.558;2023-07-13T11:33:09;99511.79;;;44.04;17.21
78839;BME280;68405;47.190;27.558;2023-07-13T11:35:49;99504.77;;;44.15;16.37
78839;BME280;68405;47.190;27.558;2023-07-13T11:38:22;99493.58;;;43.75;16.89
78839;BME280;68405;47.190;27.558;2023-07-13T11:40:55;99490.92;;;43.77;17.05
78839;BME280;68405;47.190;27.558;2023-07-13T11:43:24;99482.11;;;43.63;17.15
78839;BME280;68405;47.190;27.558;2023-07-13T11:45:53;99469.67;;;43.70;16.89
78839;BME280;68405;47.190;27.558;2023-07-13T11:48:26;99473.50;;;43.74;17.48
78839;BME280;68405;47.190;27.558;2023-07-13T11:50:58;99497.69;;;43.23;17.77
78839;BME280;68405;47.190;27.558;2023-07-13T11:53:32;99524.48;;;42.79;18.08
78839;BME280;68405;47.190;27.558;2023-07-13T11:56:06;99540.92;;;42.28;17.90
78839;BME280;68405;47.190;27.558;2023-07-13T11:58:36;99546.27;;;41.79;18.38
78839;BME280;68405;47.190;27.558;2023-07-13T12:01:06;99553.88;;;41.15;19.22
78839;BME280;68405;47.190;27.558;2023-07-13T12:03:35;99565.09;;;40.28;20.97
78839;BME280;68405;47.190;27.558;2023-07-13T12:06:17;99579.47;;;39.77;20.68
78839;BME280;68405;47.190;27.558;2023-07-13T12:08:51;99607.88;;;38.87;21.82
78839;BME280;68405;47.190;27.558;2023-07-13T12:11:20;99659.69;;;37.07;24.47
78839;BME280;68405;47.190;27.558;2023-07-13T12:13:50;99686.91;;;34.31;26.41
78839;BME280;68405;47.190;27.558;2023-07-13T12:16:25;99704.88;;;32.37;29.52
78839;BME280;68405;47.190;27.558;2023-07-13T12:18:56;99696.29;;;31.21;31.88
78839;BME280;68405;47.190;27.558;2023-07-13T12:21:31;99691.61;;;30.04;35.64
78839;BME280;68405;47.190;27.558;2023-07-13T12:24:01;99676.51;;;29.21;37.75
78839;BME280;68405;47.190;27.558;2023-07-13T12:26:32;99651.42;;;28.32;44.58
78839;BME280;68405;47.190;27.558;2023-07-13T12:29:04;99626.15;;;27.24;50.75
78839;BME280;68405;47.190;27.558;2023-07-13T12:31:36;99612.48;;;26.28;53.20
78839;BME280;68405;47.190;27.558;2023-07-13T12:34:08;99616.79;;;25.45;57.48
78839;BME280;68405;47.190;27.558;2023-07-13T12:36:45;99607.42;;;24.88;59.51
78839;BME280;68405;47.190;27.558;2023-07-13T12:39:17;99599.16;;;24.47;62.08
78839;BME280;68405;47.190;27.558;2023-07-13T12:41:48;99602.28;;;24.10;65.10
78839;BME280;68405;47.190;27.558;2023-07-13T12:44:20;99589.36;;;23.91;65.87
78839;BME280;68405;47.190;27.558;2023-07-13T12:46:55;99556.76;;;23.77;69.76
78839;BME280;68405;47.190;27.558;2023-07-13T12:49:28;99527.08;;;23.65;70.10
78839;BME280;68405;47.190;27.558;2023-07-13T12:51:59;99503.32;;;23.48;67.69
78839;BME280;68405;47.190;27.558;2023-07-13T12:54:29;99471.79;;;23.52;66.31
78839;BME280;68405;47.190;27.558;2023-07-13T12:56:59;99479.99;;;23.57;65.31
78839;BME280;68405;47.190;27.558;2023-07-13T12:59:33;99602.16;;;23.45;66.69
78839;BME280;68405;47.190;27.558;2023-07-13T13:02:05;99604.66;;;22.94;68.68
78839;BME280;68405;47.190;27.558;2023-07-13T13:04:46;99643.65;;;22.64;66.44
78839;BME280;68405;47.190;27.558;2023-07-13T13:07:16;99658.20;;;22.48;67.50
78839;BME280;68405;47.190;27.558;2023-07-13T13:09:45;99617.05;;;22.36;68.40
78839;BME280;68405;47.190;27.558;2023-07-13T13:12:16;99528.73;;;22.30;67.00
78839;BME280;68405;47.190;27.558;2023-07-13T13:14:45;99496.98;;;22.28;68.90
78839;BME280;68405;47.190;27.558;2023-07-13T13:17:20;99512.51;;;22.34;66.03